Time;durP1;ratioP1;P1;durP2;ratioP2;P2;SDS_P1;SDS_P2;PMS_P1;PMS_P2;Temp;Humidity;BMP_temperature;BMP_pressure;BME280_temperature;BME280_humidity;BME280_pressure;Samples;Min_cycle;Max_cycle;Signal;HPM_P1;HPM_P2
2022/01/24 00:00:59;;;;;;;8.30;6.18;;;2.40;70.80;;;;;;4955397;28;20650;-78
2022/01/24 00:03:27;;;;;;;8.85;5.15;;;2.40;70.80;;;;;;4959145;28;20234;-77
2022/01/24 00:05:54;;;;;;;8.93;5.75;;;2.40;70.80;;;;;;4961863;28;20257;-79
2022/01/24 00:08:21;;;;;;;9.35;6.20;;;2.40;70.80;;;;;;4955165;28;20213;-77
2022/01/24 00:10:50;;;;;;;7.03;4.75;;;2.30;70.70;;;;;;4936192;29;20218;-78
2022/01/24 00:14:07;;;;;;;7.63;5.88;;;2.30;70.70;;;;;;4936362;29;20228;-76
2022/01/24 00:16:25;;;;;;;8.45;5.57;;;2.20;70.60;;;;;;4936653;29;20209;-77
2022/01/24 00:27:06;;;;;;;6.63;5.40;;;2.20;71.40;;;;;;4956521;29;20201;-76
2022/01/24 00:29:33;;;;;;;7.07;6.18;;;2.10;71.90;;;;;;4964026;28;20217;-75
2022/01/24 00:32:00;;;;;;;8.93;5.75;;;2.10;72.10;;;;;;4973645;28;20229;-75
2022/01/24 00:34:29;;;;;;;7.93;5.65;;;2.20;71.90;;;;;;4966866;28;20206;-73
2022/01/24 00:36:56;;;;;;;8.43;6.20;;;2.10;71.70;;;;;;4950216;29;20214;-76
2022/01/24 00:39:24;;;;;;;9.07;5.82;;;2.10;72.00;;;;;;4954269;29;20313;-77
2022/01/24 00:42:02;;;;;;;9.20;6.32;;;2.10;72.10;;;;;;4957278;28;20260;-76
2022/01/24 00:44:48;;;;;;;8.18;5.45;;;2.10;72.50;;;;;;4942299;28;20278;-77
2022/01/24 00:47:21;;;;;;;8.20;6.05;;;2.10;73.00;;;;;;4941188;29;20294;-77
2022/01/24 00:52:58;;;;;;;8.98;6.43;;;2.10;73.20;;;;;;4945105;29;20270;-77
2022/01/24 00:55:25;;;;;;;7.25;5.35;;;2.10;72.80;;;;;;4939839;29;20741;-77
2022/01/24 00:57:52;;;;;;;8.80;6.35;;;2.10;72.80;;;;;;4940068;29;20301;-79
2022/01/24 01:00:19;;;;;;;9.50;5.85;;;2.20;72.80;;;;;;4958849;28;20210;-76
2022/01/24 01:02:46;;;;;;;6.72;5.95;;;2.20;72.30;;;;;;4959667;28;20312;-76
2022/01/24 01:05:30;;;;;;;7.18;5.50;;;2.10;72.20;;;;;;4959608;28;20237;-76
2022/01/24 01:08:13;;;;;;;8.55;5.55;;;2.10;72.40;;;;;;4959348;28;20210;-74
2022/01/24 01:18:55;;;;;;;7.85;5.20;;;2.10;72.40;;;;;;4938384;29;20214;-75
2022/01/24 01:21:23;;;;;;;6.72;5.40;;;2.10;72.60;;;;;;4937785;29;20210;-75
2022/01/24 01:23:54;;;;;;;9.68;5.82;;;2.00;72.60;;;;;;4943634;29;20230;-76
2022/01/24 01:26:27;;;;;;;7.22;5.57;;;2.00;72.90;;;;;;4957599;28;20222;-77
2022/01/24 01:28:59;;;;;;;7.95;5.40;;;2.00;73.30;;;;;;4956110;28;20224;-76
2022/01/24 01:31:36;;;;;;;8.88;6.03;;;1.90;73.80;;;;;;4956503;28;20674;-76
2022/01/24 01:34:13;;;;;;;9.65;6.20;;;1.90;74.30;;;;;;4951539;28;20710;-77
2022/01/24 01:37:06;;;;;;;8.25;5.93;;;1.80;74.60;;;;;;4937700;29;20214;-77
2022/01/24 01:53:52;;;;;;;9.27;6.50;;;1.50;80.40;;;;;;4897097;29;20287;-75
2022/01/24 01:56:19;;;;;;;12.30;7.32;;;1.40;81.40;;;;;;4925917;29;20218;-76
2022/01/24 01:58:46;;;;;;;10.20;7.20;;;1.40;82.50;;;;;;4952512;29;20212;-77
2022/01/24 02:01:13;;;;;;;9.80;6.95;;;1.40;82.50;;;;;;4965436;29;20616;-76
2022/01/24 02:03:41;;;;;;;9.07;7.18;;;1.30;83.30;;;;;;4969039;23;20236;-76
2022/01/24 02:06:08;;;;;;;10.98;7.47;;;1.30;84.50;;;;;;4960902;28;20210;-76
2022/01/24 02:08:37;;;;;;;9.82;7.10;;;1.20;85.30;;;;;;4966104;28;20226;-77
2022/01/24 02:11:04;;;;;;;16.40;8.93;;;1.20;86.10;;;;;;4959926;28;20244;-77
2022/01/24 02:13:31;;;;;;;11.80;8.10;;;1.20;86.30;;;;;;4957749;28;20666;-76
2022/01/24 02:16:08;;;;;;;11.68;7.90;;;1.20;86.40;;;;;;4952453;29;20224;-77
2022/01/24 02:18:41;;;;;;;9.38;6.90;;;1.20;87.10;;;;;;4961041;29;20273;-77
2022/01/24 02:21:24;;;;;;;9.77;7.45;;;1.20;87.30;;;;;;4965641;28;20230;-77
2022/01/24 02:23:57;;;;;;;13.07;7.18;;;1.20;87.80;;;;;;4959383;28;20264;-77
2022/01/24 02:26:24;;;;;;;11.15;7.60;;;1.20;88.50;;;;;;4959641;28;20683;-77
2022/01/24 02:29:18;;;;;;;10.15;7.18;;;1.20;88.00;;;;;;4959600;28;20228;-78
2022/01/24 02:31:47;;;;;;;11.02;7.05;;;1.20;88.30;;;;;;4918662;29;20710;-77
2022/01/24 02:34:24;;;;;;;9.20;7.32;;;1.10;88.60;;;;;;4907784;29;20296;-76
2022/01/24 02:36:52;;;;;;;11.65;7.22;;;1.10;89.40;;;;;;4901228;29;20222;-78
2022/01/24 02:39:46;;;;;;;11.82;7.80;;;1.10;90.00;;;;;;4912963;29;20216;-77
2022/01/24 02:50:50;;;;;;;12.93;7.90;;;1.00;89.70;;;;;;4936866;29;20202;-76
2022/01/24 02:53:18;;;;;;;12.55;7.80;;;1.00;90.00;;;;;;4949367;29;20229;-76
2022/01/24 02:55:47;;;;;;;10.50;7.43;;;1.00;90.10;;;;;;4963930;28;20190;-79
2022/01/24 02:58:16;;;;;;;10.93;8.48;;;1.10;90.10;;;;;;5148684;23;20296;-77
2022/01/24 03:00:45;;;;;;;10.07;7.13;;;1.10;90.10;;;;;;4980185;28;20205;-79
2022/01/24 03:03:13;;;;;;;12.05;8.13;;;1.10;90.00;;;;;;4979294;28;20249;-77
2022/01/24 03:05:40;;;;;;;11.65;7.90;;;1.10;89.20;;;;;;4966287;28;20273;-77
2022/01/24 03:08:08;;;;;;;11.77;8.98;;;1.10;88.90;;;;;;4959747;28;20210;-77
2022/01/24 03:10:39;;;;;;;11.40;7.80;;;1.10;88.20;;;;;;4972406;23;20220;-79
2022/01/24 03:13:19;;;;;;;11.50;7.28;;;1.10;88.20;;;;;;4948865;29;20230;-81
2022/01/24 03:15:48;;;;;;;15.13;8.27;;;1.00;88.50;;;;;;4956085;29;20213;-78
2022/01/24 03:18:16;;;;;;;10.30;7.60;;;1.00;89.40;;;;;;4947759;29;20210;-78
2022/01/24 03:20:43;;;;;;;12.50;7.60;;;0.90;88.70;;;;;;4953001;29;20253;-77
2022/01/24 03:23:11;;;;;;;10.15;7.53;;;0.80;90.00;;;;;;4954637;29;20274;-78
2022/01/24 03:25:38;;;;;;;12.68;7.85;;;0.80;90.00;;;;;;4944804;29;20203;-78
2022/01/24 03:28:07;;;;;;;11.48;7.72;;;0.80;90.50;;;;;;4942233;29;20240;-80
2022/01/24 03:30:35;;;;;;;11.55;7.85;;;0.70;90.90;;;;;;4940250;29;20230;-80
2022/01/24 03:33:02;;;;;;;10.85;7.95;;;0.70;91.10;;;;;;4939229;29;20232;-78
2022/01/24 03:35:30;;;;;;;10.38;7.85;;;0.70;91.40;;;;;;4941401;29;20198;-79
2022/01/24 03:37:58;;;;;;;12.70;7.85;;;0.60;91.70;;;;;;4938794;29;20636;-78
2022/01/24 03:40:25;;;;;;;15.27;9.32;;;0.60;91.80;;;;;;4939623;29;20265;-80
2022/01/24 03:42:52;;;;;;;10.95;7.45;;;0.60;92.30;;;;;;4940667;29;20202;-81
2022/01/24 03:45:25;;;;;;;13.23;8.73;;;0.60;92.30;;;;;;4940057;29;20289;-80
2022/01/24 03:48:05;;;;;;;11.88;7.93;;;0.60;92.50;;;;;;4938955;29;20249;-77
2022/01/24 03:50:32;;;;;;;15.40;8.73;;;0.60;92.70;;;;;;4939189;29;20304;-76
2022/01/24 03:52:59;;;;;;;10.70;7.85;;;0.60;92.80;;;;;;4940127;29;20269;-78
2022/01/24 03:55:25;;;;;;;13.77;8.68;;;0.50;93.00;;;;;;4940991;29;20640;-79
2022/01/24 03:57:54;;;;;;;13.35;8.35;;;0.60;93.10;;;;;;4940861;29;20273;-80
2022/01/24 04:00:22;;;;;;;14.00;8.35;;;0.50;93.10;;;;;;4941891;29;20219;-80
2022/01/24 04:02:49;;;;;;;11.60;7.50;;;0.50;93.30;;;;;;4941188;29;20241;-81
2022/01/24 04:05:16;;;;;;;13.70;8.55;;;0.50;93.40;;;;;;4941778;29;20238;-80
2022/01/24 04:07:44;;;;;;;14.77;8.45;;;0.40;93.40;;;;;;4941498;29;20278;-77
2022/01/24 04:10:12;;;;;;;14.88;8.35;;;0.50;93.90;;;;;;4940454;29;20233;-82
2022/01/24 04:12:40;;;;;;;13.85;9.55;;;0.50;93.90;;;;;;4939123;29;20291;-79
2022/01/24 04:15:23;;;;;;;12.18;8.07;;;0.40;94.00;;;;;;4939022;29;20217;-78
2022/01/24 04:18:09;;;;;;;16.08;8.02;;;0.40;94.20;;;;;;4939006;29;20277;-79
2022/01/24 04:23:20;;;;;;;14.82;9.48;;;0.30;94.50;;;;;;4947664;29;20281;-77
2022/01/24 04:25:47;;;;;;;16.58;9.48;;;0.30;94.90;;;;;;4952034;29;20235;-78
2022/01/24 04:28:14;;;;;;;15.63;9.35;;;0.30;95.10;;;;;;4942779;29;20215;-79
2022/01/24 04:30:41;;;;;;;13.65;8.68;;;0.30;95.30;;;;;;4939327;29;20238;-79
2022/01/24 04:33:10;;;;;;;13.00;8.98;;;0.20;95.50;;;;;;4938587;29;20290;-80
2022/01/24 04:35:37;;;;;;;15.50;9.85;;;0.30;96.00;;;;;;4949136;29;20207;-79
2022/01/24 04:38:04;;;;;;;12.63;8.85;;;0.30;96.10;;;;;;4946487;29;20628;-78
2022/01/24 04:40:31;;;;;;;14.77;9.45;;;0.20;96.20;;;;;;4944479;29;20237;-79
2022/01/24 04:43:06;;;;;;;15.85;9.80;;;0.20;96.50;;;;;;4944806;29;20228;-80
2022/01/24 04:45:57;;;;;;;15.55;8.90;;;0.10;96.60;;;;;;4946523;29;20214;-80
2022/01/24 04:51:17;;;;;;;13.50;9.57;;;0.00;97.40;;;;;;4944512;29;20229;-80
2022/01/24 04:54:16;;;;;;;17.02;10.57;;;0.00;97.70;;;;;;4944959;29;20226;-80
2022/01/24 04:56:43;;;;;;;13.45;10.10;;;0.00;98.10;;;;;;4944436;29;20225;-79
2022/01/24 04:59:11;;;;;;;15.07;9.93;;;0.00;98.40;;;;;;4946092;29;20235;-79
2022/01/24 05:01:38;;;;;;;16.48;10.13;;;-0.10;98.40;;;;;;4952187;29;20290;-78
2022/01/24 05:04:06;;;;;;;14.73;10.15;;;-0.10;98.40;;;;;;4961689;28;20286;-76
2022/01/24 05:06:33;;;;;;;15.70;9.75;;;-0.10;98.40;;;;;;4961402;28;20210;-76
2022/01/24 05:09:00;;;;;;;14.32;10.15;;;-0.10;98.80;;;;;;4961884;28;20197;-74
2022/01/24 05:11:36;;;;;;;16.00;10.52;;;-0.10;99.00;;;;;;4960236;28;20238;-77
2022/01/24 05:25:02;;;;;;;16.35;10.00;;;-0.10;99.90;;;;;;4959947;28;20605;-79
2022/01/24 05:27:31;;;;;;;14.40;9.95;;;-0.10;99.80;;;;;;4960278;29;20195;-80
2022/01/24 05:29:58;;;;;;;14.30;9.93;;;-0.10;99.90;;;;;;4959794;29;20250;-79
2022/01/24 05:32:25;;;;;;;12.63;9.45;;;-0.10;99.90;;;;;;4957459;29;20239;-79
2022/01/24 05:34:53;;;;;;;16.55;11.15;;;-0.10;99.90;;;;;;4959927;29;20195;-79
2022/01/24 05:37:20;;;;;;;17.42;11.65;;;0.00;99.90;;;;;;4959684;28;20234;-78
2022/01/24 05:39:47;;;;;;;17.30;10.95;;;0.00;99.90;;;;;;4960010;28;20217;-79
2022/01/24 05:42:17;;;;;;;15.77;9.98;;;0.00;99.90;;;;;;4958650;29;20249;-79
2022/01/24 05:44:44;;;;;;;15.82;9.93;;;-0.10;99.90;;;;;;4946367;29;20249;-81
2022/01/24 05:47:11;;;;;;;16.13;10.48;;;-0.10;99.90;;;;;;4943196;29;20230;-80
2022/01/24 05:49:38;;;;;;;16.00;9.73;;;-0.10;99.90;;;;;;4948381;29;20226;-78
2022/01/24 05:52:09;;;;;;;15.57;10.05;;;-0.10;99.90;;;;;;4952435;29;20255;-82
2022/01/24 05:54:36;;;;;;;17.25;10.85;;;-0.10;99.90;;;;;;4948804;29;20449;-80
2022/01/24 05:57:04;;;;;;;17.45;10.60;;;-0.10;99.90;;;;;;4945092;29;20206;-81
2022/01/24 05:59:31;;;;;;;17.00;10.38;;;-0.20;99.90;;;;;;4945459;29;20381;-81
2022/01/24 06:01:58;;;;;;;15.48;10.75;;;-0.20;99.90;;;;;;4942573;29;20309;-81
2022/01/24 06:04:25;;;;;;;21.08;11.77;;;-0.20;99.90;;;;;;4943041;29;20210;-80
2022/01/24 06:06:52;;;;;;;15.98;10.98;;;-0.20;99.90;;;;;;4948032;29;20213;-81
2022/01/24 06:09:20;;;;;;;20.20;11.32;;;-0.20;99.90;;;;;;4948426;29;20199;-79
2022/01/24 06:11:47;;;;;;;16.63;11.52;;;-0.10;99.90;;;;;;4944202;29;20330;-81
2022/01/24 06:14:14;;;;;;;20.38;12.90;;;-0.10;99.90;;;;;;4944737;29;20290;-81
2022/01/24 06:16:41;;;;;;;18.08;12.60;;;-0.10;99.90;;;;;;4945524;29;20221;-80
2022/01/24 06:19:08;;;;;;;18.73;12.50;;;-0.20;99.90;;;;;;4945164;29;20287;-79
2022/01/24 06:21:35;;;;;;;21.08;12.60;;;-0.20;99.90;;;;;;4946793;29;20238;-79
2022/01/24 06:24:03;;;;;;;20.40;12.15;;;-0.20;99.90;;;;;;4949002;29;20242;-79
2022/01/24 06:26:31;;;;;;;18.30;12.77;;;-0.10;99.90;;;;;;4951177;29;20297;-79
2022/01/24 06:28:58;;;;;;;19.13;12.00;;;-0.10;99.90;;;;;;4959033;29;20214;-78
2022/01/24 06:31:25;;;;;;;18.40;12.27;;;-0.10;99.90;;;;;;4956326;29;20291;-80
2022/01/24 06:33:52;;;;;;;19.52;12.90;;;-0.10;99.90;;;;;;4958029;28;20218;-81
2022/01/24 06:36:19;;;;;;;18.60;11.10;;;0.00;99.90;;;;;;4958454;29;20210;-79
2022/01/24 06:38:46;;;;;;;20.38;13.00;;;-0.10;99.90;;;;;;4956273;29;20205;-78
2022/01/24 06:41:19;;;;;;;18.42;11.15;;;-0.10;99.90;;;;;;4956954;29;20230;-79
2022/01/24 06:43:47;;;;;;;18.00;11.88;;;-0.10;99.90;;;;;;4957929;29;20211;-80
2022/01/24 06:46:15;;;;;;;20.38;12.82;;;0.00;99.90;;;;;;4957733;29;20209;-81
2022/01/24 06:48:42;;;;;;;19.40;11.75;;;0.00;99.90;;;;;;4950667;29;20210;-80
2022/01/24 06:51:10;;;;;;;19.40;12.05;;;-0.10;99.90;;;;;;4943773;29;20588;-78
2022/01/24 06:53:38;;;;;;;19.65;12.48;;;0.00;99.90;;;;;;4943188;29;20233;-79
2022/01/24 06:56:05;;;;;;;18.50;13.05;;;0.00;99.90;;;;;;4944057;29;20238;-79
2022/01/24 06:58:33;;;;;;;18.35;11.23;;;-0.10;99.90;;;;;;4942861;29;20269;-80
2022/01/24 07:01:02;;;;;;;17.77;12.65;;;-0.10;99.90;;;;;;4941948;29;20268;-79
2022/01/24 07:03:29;;;;;;;17.58;11.35;;;-0.10;99.90;;;;;;4943959;29;20207;-78
2022/01/24 07:05:56;;;;;;;21.65;13.13;;;-0.10;99.90;;;;;;4943003;29;20210;-80
2022/01/24 07:08:23;;;;;;;21.13;13.48;;;-0.10;99.90;;;;;;4945113;29;20249;-79
2022/01/24 07:10:50;;;;;;;18.08;11.73;;;-0.10;99.90;;;;;;4954709;29;20241;-79
2022/01/24 07:13:19;;;;;;;18.70;12.65;;;-0.20;99.90;;;;;;4955309;29;20237;-81
2022/01/24 07:15:49;;;;;;;21.95;12.82;;;-0.20;99.90;;;;;;4954701;29;20213;-80
2022/01/24 07:21:04;;;;;;;21.33;14.00;;;-0.30;99.90;;;;;;4947663;29;20663;-77
2022/01/24 07:23:31;;;;;;;20.45;12.68;;;-0.30;99.90;;;;;;4940762;29;20202;-77
2022/01/24 07:25:58;;;;;;;20.67;13.60;;;-0.20;99.90;;;;;;4939877;29;20211;-77
2022/01/24 07:28:25;;;;;;;27.52;13.70;;;-0.20;99.90;;;;;;4937937;29;20310;-74
2022/01/24 07:30:51;;;;;;;23.52;14.68;;;-0.10;99.90;;;;;;4945489;29;20249;-77
2022/01/24 07:33:20;;;;;;;21.13;12.68;;;-0.10;99.90;;;;;;4929080;29;20233;-76
2022/01/24 07:35:47;;;;;;;22.23;12.80;;;-0.10;99.90;;;;;;4920975;29;20278;-77
2022/01/24 07:38:14;;;;;;;20.75;14.27;;;0.00;99.90;;;;;;4936583;29;20301;-78
2022/01/24 07:40:43;;;;;;;19.90;14.27;;;0.00;99.90;;;;;;4941370;29;20724;-73
2022/01/24 07:43:12;;;;;;;21.55;14.10;;;0.00;99.90;;;;;;4936899;29;20210;-77
2022/01/24 07:45:40;;;;;;;22.35;14.32;;;0.10;99.90;;;;;;4939361;29;20273;-78
2022/01/24 07:48:08;;;;;;;19.50;13.60;;;0.10;99.50;;;;;;4945066;29;20273;-80
2022/01/24 07:50:40;;;;;;;33.92;14.90;;;0.10;99.30;;;;;;4942793;29;20261;-78
2022/01/24 07:53:08;;;;;;;17.95;13.18;;;0.10;99.20;;;;;;4940967;29;20683;-78
2022/01/24 07:55:35;;;;;;;18.75;12.55;;;0.10;99.30;;;;;;4937762;29;20210;-77
2022/01/24 07:58:02;;;;;;;21.40;13.07;;;0.10;99.20;;;;;;4942181;29;20246;-79
2022/01/24 08:00:30;;;;;;;24.58;13.30;;;0.10;99.30;;;;;;4946088;29;20210;-79
2022/01/24 08:02:58;;;;;;;19.30;12.77;;;0.20;99.20;;;;;;4946767;29;20203;-81
2022/01/24 08:05:26;;;;;;;20.55;13.85;;;0.20;99.20;;;;;;4953011;29;20226;-82
2022/01/24 08:07:55;;;;;;;19.10;13.27;;;0.20;99.00;;;;;;4953822;29;20199;-83
2022/01/24 08:10:22;;;;;;;24.75;14.93;;;0.30;98.80;;;;;;4952900;29;20230;-80
2022/01/24 08:12:49;;;;;;;26.17;13.73;;;0.40;98.80;;;;;;4955690;29;20230;-80
2022/01/24 08:15:16;;;;;;;18.42;13.32;;;0.40;98.60;;;;;;4950085;29;20245;-80
2022/01/24 08:17:44;;;;;;;17.13;11.80;;;0.60;98.60;;;;;;4947985;29;20210;-80
2022/01/24 08:20:12;;;;;;;22.55;13.18;;;0.70;97.30;;;;;;4949883;29;20225;-80
2022/01/24 08:22:40;;;;;;;18.67;13.23;;;0.80;96.60;;;;;;4951852;29;20240;-80
2022/01/24 08:25:10;;;;;;;26.85;13.32;;;0.90;95.70;;;;;;4950148;29;20673;-81
2022/01/24 08:27:38;;;;;;;20.95;12.80;;;1.00;95.40;;;;;;4948821;29;20262;-78
2022/01/24 08:30:06;;;;;;;20.90;12.98;;;1.10;94.10;;;;;;4944369;29;20742;-79
2022/01/24 08:32:34;;;;;;;18.98;12.18;;;1.20;93.50;;;;;;4940991;29;20254;-79
2022/01/24 08:35:01;;;;;;;20.42;12.80;;;1.30;92.90;;;;;;4945026;29;20306;-78
2022/01/24 08:37:28;;;;;;;15.38;11.00;;;1.40;92.30;;;;;;4943032;29;20214;-78
2022/01/24 08:39:56;;;;;;;16.88;12.60;;;1.50;92.10;;;;;;4944113;29;20210;-78
2022/01/24 08:42:31;;;;;;;20.02;13.35;;;1.50;91.70;;;;;;4943164;29;20230;-78
2022/01/24 08:47:43;;;;;;;21.80;13.93;;;1.70;90.30;;;;;;4942950;29;20226;-76
2022/01/24 08:50:10;;;;;;;19.10;11.80;;;1.80;89.80;;;;;;4946462;29;20213;-77
2022/01/24 08:52:37;;;;;;;16.60;11.32;;;1.90;88.70;;;;;;4945661;29;20554;-78
2022/01/24 08:55:05;;;;;;;16.60;12.05;;;2.00;87.30;;;;;;4942018;29;20951;-77
2022/01/24 08:57:33;;;;;;;15.27;10.73;;;2.10;86.90;;;;;;4943094;29;20298;-77
2022/01/24 09:00:00;;;;;;;15.93;11.15;;;2.20;84.40;;;;;;4943689;29;20276;-78
2022/01/24 09:02:27;;;;;;;14.20;10.40;;;2.30;83.30;;;;;;4943400;29;20297;-78
2022/01/24 09:04:54;;;;;;;14.68;10.00;;;2.40;83.20;;;;;;4945084;29;20210;-77
2022/01/24 09:07:21;;;;;;;14.13;10.38;;;2.50;82.00;;;;;;4945212;29;20206;-80
2022/01/24 09:09:48;;;;;;;16.05;10.82;;;2.60;80.70;;;;;;4945364;29;20617;-78
2022/01/24 09:12:15;;;;;;;17.60;11.20;;;2.70;79.50;;;;;;4946403;29;20227;-79
2022/01/24 09:14:47;;;;;;;16.75;11.48;;;2.90;78.60;;;;;;4946754;29;20297;-77
2022/01/24 09:17:15;;;;;;;13.60;10.23;;;3.00;76.90;;;;;;4946884;29;20271;-77
2022/01/24 09:19:42;;;;;;;13.32;9.80;;;3.10;75.60;;;;;;4945917;29;20293;-77
2022/01/24 09:22:15;;;;;;;19.52;10.95;;;3.20;74.20;;;;;;4943879;29;20234;-76
2022/01/24 09:24:42;;;;;;;15.38;10.50;;;3.30;73.10;;;;;;4945355;29;20647;-79
2022/01/24 09:27:09;;;;;;;15.50;11.07;;;3.30;72.30;;;;;;4942747;29;20237;-77
2022/01/24 09:29:36;;;;;;;12.90;10.73;;;3.40;71.60;;;;;;4943356;29;20238;-78
2022/01/24 09:32:05;;;;;;;14.18;10.30;;;3.50;71.70;;;;;;4944014;29;20272;-76
2022/01/24 09:34:33;;;;;;;13.13;9.48;;;3.50;70.70;;;;;;4943156;29;20222;-78
2022/01/24 09:37:00;;;;;;;14.35;10.25;;;3.50;69.50;;;;;;4944921;29;20218;-76
2022/01/24 09:39:27;;;;;;;14.88;10.32;;;3.60;68.90;;;;;;4947062;29;20481;-78
2022/01/24 09:41:55;;;;;;;13.75;9.02;;;3.60;68.90;;;;;;4949377;29;20230;-79
2022/01/24 09:44:22;;;;;;;15.20;10.48;;;3.70;68.20;;;;;;4951615;29;20222;-80
2022/01/24 09:46:49;;;;;;;12.13;9.43;;;3.70;67.60;;;;;;4950249;29;20199;-79
2022/01/24 09:49:17;;;;;;;13.63;9.75;;;3.80;67.30;;;;;;4954969;29;20270;-79
2022/01/24 09:51:44;;;;;;;14.38;10.48;;;3.90;67.00;;;;;;4954527;29;20231;-78
2022/01/24 09:54:13;;;;;;;12.82;9.90;;;3.90;65.60;;;;;;4950007;29;20248;-78
2022/01/24 09:56:40;;;;;;;12.25;9.73;;;3.90;65.30;;;;;;4952921;29;20690;-77
2022/01/24 09:59:08;;;;;;;14.00;10.00;;;4.00;65.10;;;;;;4942674;29;20279;-77
2022/01/24 10:01:35;;;;;;;12.98;10.52;;;4.10;65.00;;;;;;4947090;29;20695;-80
2022/01/24 10:04:15;;;;;;;15.63;10.73;;;4.10;64.40;;;;;;4943005;29;20206;-80
2022/01/24 10:07:15;;;;;;;11.25;9.27;;;4.10;63.50;;;;;;4943803;29;20567;-79
2022/01/24 10:09:44;;;;;;;12.52;9.75;;;4.20;63.60;;;;;;4884051;29;20209;-77
2022/01/24 10:12:29;;;;;;;12.25;8.93;;;4.20;63.60;;;;;;4918105;29;20253;-79
2022/01/24 10:17:44;;;;;;;13.02;9.20;;;4.30;63.30;;;;;;4954103;29;20714;-78
2022/01/24 10:20:18;;;;;;;13.88;9.65;;;4.30;62.80;;;;;;4952911;29;20207;-79
2022/01/24 10:23:05;;;;;;;15.60;10.23;;;4.40;62.60;;;;;;4943582;29;20218;-79
2022/01/24 10:25:33;;;;;;;12.52;10.05;;;4.40;62.40;;;;;;4941470;29;20207;-78
2022/01/24 10:28:02;;;;;;;13.82;9.50;;;4.50;61.70;;;;;;4943335;29;20206;-79
2022/01/24 10:30:30;;;;;;;12.00;9.07;;;4.50;61.50;;;;;;4944157;29;20510;-78
2022/01/24 10:32:57;;;;;;;14.15;9.95;;;4.60;61.40;;;;;;4948765;29;20214;-78
2022/01/24 10:35:37;;;;;;;12.63;9.48;;;4.70;60.90;;;;;;4951582;29;20260;-78
2022/01/24 10:38:25;;;;;;;13.45;8.90;;;4.60;60.70;;;;;;4951390;29;20210;-78
2022/01/24 10:41:05;;;;;;;14.43;10.60;;;4.70;60.20;;;;;;4953669;29;20534;-79
2022/01/24 10:43:33;;;;;;;14.30;10.70;;;4.70;60.50;;;;;;4952871;29;20646;-79
2022/01/24 10:46:01;;;;;;;13.18;9.70;;;4.60;59.90;;;;;;4943282;29;20217;-79
2022/01/24 10:48:30;;;;;;;14.02;10.30;;;4.70;60.10;;;;;;4948561;29;20226;-78
2022/01/24 10:51:06;;;;;;;12.30;9.93;;;4.90;59.80;;;;;;4947443;29;20285;-76
2022/01/24 10:53:41;;;;;;;11.43;9.52;;;4.90;59.00;;;;;;4947151;29;20221;-77
2022/01/24 10:56:28;;;;;;;14.07;10.30;;;4.80;59.10;;;;;;4941907;29;20744;-77
2022/01/24 10:58:59;;;;;;;16.25;9.98;;;4.80;59.60;;;;;;4938348;29;20210;-77
2022/01/24 11:01:27;;;;;;;14.23;10.25;;;4.90;59.60;;;;;;4939153;29;20242;-78
2022/01/24 11:04:06;;;;;;;13.40;8.80;;;5.00;59.60;;;;;;5009108;23;20277;-76
2022/01/24 11:06:37;;;;;;;12.15;9.40;;;5.10;58.40;;;;;;4960535;28;20265;-77
2022/01/24 11:09:13;;;;;;;14.95;10.63;;;5.10;57.90;;;;;;4961341;28;20237;-76
2022/01/24 11:11:41;;;;;;;13.23;10.13;;;5.10;58.20;;;;;;4963343;28;20214;-80
2022/01/24 11:14:09;;;;;;;15.75;10.10;;;5.10;57.60;;;;;;4963632;28;20238;-76
2022/01/24 11:16:38;;;;;;;14.65;10.35;;;5.10;57.00;;;;;;4953144;29;20198;-79
2022/01/24 11:19:11;;;;;;;12.68;9.02;;;5.10;56.10;;;;;;4956375;28;20217;-79
2022/01/24 11:21:39;;;;;;;13.85;10.27;;;5.10;55.40;;;;;;4954086;29;20249;-79
2022/01/24 11:24:08;;;;;;;11.13;9.18;;;5.20;56.00;;;;;;4951971;29;20310;-76
2022/01/24 11:26:36;;;;;;;11.57;9.85;;;5.40;55.70;;;;;;4952669;29;20253;-78
2022/01/24 11:29:04;;;;;;;12.93;9.95;;;5.60;55.80;;;;;;4947265;29;20316;-77
2022/01/24 11:31:40;;;;;;;15.45;8.48;;;5.40;55.70;;;;;;4942264;29;20677;-75
2022/01/24 11:34:16;;;;;;;10.80;8.60;;;5.40;55.70;;;;;;4941176;29;20316;-76
2022/01/24 11:36:44;;;;;;;14.10;9.88;;;5.30;55.60;;;;;;4940488;29;20202;-76
2022/01/24 11:39:11;;;;;;;12.18;9.40;;;5.30;55.60;;;;;;4940816;29;20214;-75
2022/01/24 11:41:41;;;;;;;15.02;10.07;;;5.40;55.70;;;;;;4940798;29;20273;-77
2022/01/24 11:44:11;;;;;;;11.77;9.30;;;5.50;55.30;;;;;;4940955;29;20257;-75
2022/01/24 11:46:45;;;;;;;11.68;8.73;;;5.60;54.80;;;;;;4940537;29;20203;-75
2022/01/24 11:49:15;;;;;;;14.07;9.20;;;5.70;54.50;;;;;;4940258;29;20273;-77
2022/01/24 11:51:43;;;;;;;11.07;8.93;;;5.70;54.10;;;;;;4939190;29;20206;-77
2022/01/24 11:54:32;;;;;;;12.30;9.68;;;5.70;54.10;;;;;;4941899;29;20218;-76
2022/01/24 11:57:22;;;;;;;11.02;8.95;;;5.70;54.20;;;;;;4948216;29;20254;-76
2022/01/24 11:59:51;;;;;;;11.38;8.95;;;5.90;53.90;;;;;;4947224;29;20197;-76
2022/01/24 12:02:23;;;;;;;12.10;8.32;;;5.90;53.30;;;;;;4947398;29;20277;-79
2022/01/24 12:04:58;;;;;;;11.00;8.05;;;6.10;53.20;;;;;;4946220;29;20294;-78
2022/01/24 12:07:30;;;;;;;11.07;8.75;;;6.10;52.50;;;;;;4939775;29;20202;-77
2022/01/24 12:10:43;;;;;;;12.95;8.23;;;6.00;52.50;;;;;;4938341;29;20233;-75
2022/01/24 12:13:20;;;;;;;9.02;8.13;;;6.10;52.70;;;;;;4933320;29;20314;-76
2022/01/24 12:16:03;;;;;;;10.30;8.30;;;6.00;52.70;;;;;;4922970;29;20222;-76
2022/01/24 12:19:00;;;;;;;14.40;9.88;;;6.10;52.30;;;;;;4967404;28;20195;-75
2022/01/24 12:21:29;;;;;;;15.93;9.65;;;6.10;52.30;;;;;;4938355;29;20206;-77
2022/01/24 12:23:59;;;;;;;11.25;8.40;;;6.10;52.00;;;;;;4938270;29;20315;-76
2022/01/24 12:26:29;;;;;;;11.82;9.00;;;6.20;51.80;;;;;;4939924;29;20213;-76
2022/01/24 12:29:03;;;;;;;11.05;8.30;;;6.30;51.80;;;;;;4940117;29;20203;-76
2022/01/24 12:31:42;;;;;;;11.43;9.15;;;6.30;51.80;;;;;;4938636;29;20214;-77
2022/01/24 12:34:22;;;;;;;13.77;9.15;;;6.30;51.80;;;;;;4935531;29;20404;-77
2022/01/24 12:37:05;;;;;;;11.27;8.73;;;6.30;51.80;;;;;;4937993;29;20269;-76
2022/01/24 12:39:37;;;;;;;14.25;9.70;;;6.40;51.90;;;;;;4956668;28;20202;-77
2022/01/24 12:42:10;;;;;;;9.57;8.05;;;6.40;51.90;;;;;;4956185;29;20194;-76
2022/01/24 12:47:28;;;;;;;10.95;8.32;;;6.50;51.50;;;;;;4970113;29;20238;-79
2022/01/24 12:49:56;;;;;;;10.25;8.27;;;6.40;51.90;;;;;;4954781;29;20230;-78
2022/01/24 12:52:25;;;;;;;10.77;8.60;;;6.50;51.40;;;;;;4952856;29;20214;-75
2022/01/24 12:54:56;;;;;;;9.98;8.73;;;6.50;51.80;;;;;;4941601;29;20235;-77
2022/01/24 12:57:29;;;;;;;8.88;7.65;;;6.50;51.00;;;;;;4941557;29;20389;-76
2022/01/24 13:00:01;;;;;;;9.75;8.38;;;6.60;50.80;;;;;;4943087;29;20202;-79
2022/01/24 13:02:30;;;;;;;9.65;8.10;;;6.50;51.90;;;;;;4941613;29;20278;-77
2022/01/24 13:05:03;;;;;;;11.43;9.55;;;6.50;51.10;;;;;;4940927;29;20238;-75
2022/01/24 13:07:31;;;;;;;10.55;8.68;;;6.60;51.20;;;;;;4940708;29;20199;-77
2022/01/24 13:10:16;;;;;;;12.90;8.60;;;6.60;50.80;;;;;;4941054;29;20694;-77
2022/01/24 13:12:44;;;;;;;9.82;8.15;;;6.70;51.20;;;;;;4940451;29;20219;-77
2022/01/24 13:15:27;;;;;;;9.93;8.00;;;6.70;50.90;;;;;;4939950;29;20223;-77
2022/01/24 13:23:34;;;;;;;9.45;7.97;;;6.80;50.30;;;;;;4942044;29;20564;-77
2022/01/24 13:26:01;;;;;;;12.32;8.98;;;6.70;50.50;;;;;;4937679;29;20227;-78
2022/01/24 13:28:28;;;;;;;12.45;8.40;;;6.80;50.70;;;;;;4955864;29;20206;-79
2022/01/24 13:31:01;;;;;;;8.75;7.78;;;6.80;50.50;;;;;;4960356;28;20199;-79
2022/01/24 13:33:30;;;;;;;8.73;7.18;;;6.80;50.40;;;;;;4948588;29;20229;-78
2022/01/24 13:35:59;;;;;;;8.07;7.25;;;6.80;50.50;;;;;;4955956;29;20207;-79
2022/01/24 13:38:27;;;;;;;9.85;7.63;;;6.90;50.40;;;;;;4951845;29;20277;-79
2022/01/24 13:40:58;;;;;;;11.52;7.78;;;6.90;50.20;;;;;;4952681;29;20237;-78
2022/01/24 13:43:37;;;;;;;9.32;8.25;;;6.80;50.10;;;;;;4949011;29;20256;-78
2022/01/24 13:46:07;;;;;;;8.70;7.05;;;6.90;50.20;;;;;;4944095;29;20208;-79
2022/01/24 13:48:40;;;;;;;9.63;7.93;;;6.90;50.00;;;;;;4943484;29;20222;-81
2022/01/24 13:51:08;;;;;;;9.52;6.93;;;6.90;50.10;;;;;;4946503;29;20221;-79
2022/01/24 13:53:37;;;;;;;9.02;7.05;;;7.00;50.00;;;;;;4945495;29;20393;-78
2022/01/24 13:56:23;;;;;;;10.15;6.95;;;7.10;49.20;;;;;;4942676;29;20245;-78
2022/01/24 13:59:06;;;;;;;11.88;7.68;;;7.10;49.60;;;;;;4943798;29;20219;-79
2022/01/24 14:01:35;;;;;;;9.68;7.28;;;7.20;49.80;;;;;;4940118;29;20291;-77
2022/01/24 14:04:04;;;;;;;12.13;7.53;;;7.10;49.50;;;;;;4939869;29;20712;-79
2022/01/24 14:06:33;;;;;;;9.65;7.45;;;7.10;49.50;;;;;;4943136;29;20274;-80
2022/01/24 14:09:10;;;;;;;8.68;7.40;;;7.10;49.40;;;;;;4941628;29;20233;-79
2022/01/24 14:11:42;;;;;;;9.43;7.15;;;7.10;49.10;;;;;;4943949;29;20293;-81
2022/01/24 14:14:13;;;;;;;9.02;7.30;;;7.10;49.50;;;;;;4940013;29;20297;-79
2022/01/24 14:16:49;;;;;;;7.25;6.20;;;7.20;49.30;;;;;;4942420;29;20219;-79